Time;durP1;ratioP1;P1;durP2;ratioP2;P2;SDS_P1;SDS_P2;PMS_P1;PMS_P2;Temp;Humidity;BMP_temperature;BMP_pressure;BME280_temperature;BME280_humidity;BME280_pressure;Samples;Min_cycle;Max_cycle;Signal;HPM_P1;HPM_P2
2022/08/31 00:05:21;;;;;;;1.73;1.30;;;13.40;99.90;;;;;;4927786;29;20991;-74
2022/08/31 00:08:29;;;;;;;1.30;1.20;;;13.30;99.90;;;;;;4928430;29;20452;-74
2022/08/31 00:11:34;;;;;;;2.90;1.33;;;13.30;99.90;;;;;;4929007;28;21008;-74
2022/08/31 00:15:00;;;;;;;1.30;1.20;;;13.20;99.90;;;;;;4927708;29;20455;-74
2022/08/31 00:18:02;;;;;;;1.23;1.13;;;13.20;99.90;;;;;;4930265;28;20891;-74
2022/08/31 00:21:07;;;;;;;1.43;1.33;;;13.20;99.90;;;;;;4929352;29;20614;-74
2022/08/31 00:24:06;;;;;;;1.63;1.40;;;13.20;99.90;;;;;;4928744;29;20463;-74
2022/08/31 00:27:05;;;;;;;4.43;1.53;;;13.10;99.90;;;;;;4929095;29;20494;-74
2022/08/31 00:30:07;;;;;;;1.20;1.10;;;13.10;99.90;;;;;;4929891;28;20463;-74
2022/08/31 00:33:22;;;;;;;1.40;1.30;;;13.10;99.90;;;;;;4925446;29;20482;-74
2022/08/31 00:36:40;;;;;;;1.40;1.30;;;13.10;99.90;;;;;;4926309;29;20484;-74
2022/08/31 00:42:59;;;;;;;2.00;1.30;;;13.00;99.90;;;;;;4928889;28;20468;-74
2022/08/31 00:46:04;;;;;;;;;;;;;;;;;;;;;
2022/08/31 00:49:19;;;;;;;1.40;1.30;;;12.90;99.90;;;;;;4927765;29;20464;-74
2022/08/31 00:52:47;;;;;;;;;;;;;;;;;;;;;
2022/08/31 00:55:58;;;;;;;1.20;1.10;;;12.80;99.90;;;;;;4926635;29;20476;-74
2022/08/31 00:59:15;;;;;;;1.37;1.27;;;12.80;99.90;;;;;;4926764;29;20491;-74
2022/08/31 01:02:30;;;;;;;1.47;1.20;;;12.70;99.90;;;;;;4927641;29;20474;-74
2022/08/31 01:12:12;;;;;;;1.30;1.20;;;12.60;99.90;;;;;;4928830;29;20827;-74
2022/08/31 01:15:14;;;;;;;1.27;1.17;;;12.60;99.90;;;;;;4922776;29;20456;-74
2022/08/31 01:18:24;;;;;;;1.17;1.07;;;12.60;99.90;;;;;;4926956;29;20901;-74
2022/08/31 01:24:43;;;;;;;1.20;1.10;;;12.50;99.90;;;;;;4926321;29;20452;-74
2022/08/31 01:27:40;;;;;;;1.93;1.37;;;12.50;99.90;;;;;;4928168;29;22139;-74
2022/08/31 01:34:13;;;;;;;1.40;1.30;;;12.50;99.90;;;;;;4928655;29;20838;-74
2022/08/31 01:37:17;;;;;;;1.50;1.40;;;12.50;99.90;;;;;;4931160;29;20479;-74
2022/08/31 01:40:32;;;;;;;1.20;1.10;;;12.50;99.90;;;;;;4932165;29;20463;-73
2022/08/31 01:43:59;;;;;;;1.17;1.17;;;12.50;99.90;;;;;;4933652;29;20467;-73
2022/08/31 01:47:06;;;;;;;1.50;1.20;;;12.40;99.90;;;;;;4934507;29;20488;-74
2022/08/31 01:50:25;;;;;;;1.73;1.10;;;12.40;99.90;;;;;;4932961;29;20459;-74
2022/08/31 01:53:33;;;;;;;1.20;1.07;;;12.40;99.90;;;;;;4930364;29;20455;-74
2022/08/31 01:56:51;;;;;;;1.33;1.23;;;12.40;99.90;;;;;;4931997;29;20479;-74
2022/08/31 01:59:54;;;;;;;1.10;1.00;;;12.30;99.90;;;;;;4931783;28;20542;-73
2022/08/31 02:02:50;;;;;;;1.20;1.10;;;12.30;99.90;;;;;;4928309;29;20550;-74
2022/08/31 02:06:03;;;;;;;1.23;0.90;;;12.30;99.90;;;;;;4926242;29;20494;-74
2022/08/31 02:13:04;;;;;;;1.23;1.10;;;12.30;99.90;;;;;;4928806;28;20460;-73
2022/08/31 02:19:29;;;;;;;1.20;1.10;;;12.30;99.90;;;;;;4927570;29;20476;-73
2022/08/31 02:23:05;;;;;;;1.53;1.20;;;12.20;99.90;;;;;;4929383;28;20992;-73
2022/08/31 02:26:15;;;;;;;1.40;1.20;;;12.20;99.90;;;;;;4919599;29;20471;-74
2022/08/31 02:29:23;;;;;;;1.23;1.00;;;12.20;99.90;;;;;;4927593;29;20596;-74
2022/08/31 02:39:08;;;;;;;2.90;1.40;;;12.10;99.90;;;;;;4926773;29;20978;-74
2022/08/31 02:42:24;;;;;;;1.20;1.10;;;12.00;99.90;;;;;;4930179;29;20503;-74
2022/08/31 02:46:04;;;;;;;0.90;0.90;;;12.00;99.90;;;;;;4928605;29;20478;-74
2022/08/31 02:52:32;;;;;;;1.00;0.97;;;12.00;99.90;;;;;;4929012;28;20555;-74
2022/08/31 02:55:33;;;;;;;1.40;1.13;;;12.00;99.90;;;;;;4930127;29;20479;-74
2022/08/31 02:58:53;;;;;;;1.60;1.20;;;12.00;99.90;;;;;;4928564;29;20587;-74
2022/08/31 03:02:04;;;;;;;1.10;1.00;;;12.00;99.90;;;;;;4927648;29;20977;-74
2022/08/31 03:05:09;;;;;;;1.50;1.40;;;12.00;99.90;;;;;;4926197;29;21249;-74
2022/08/31 03:08:16;;;;;;;1.33;1.00;;;11.90;99.90;;;;;;4928262;29;20683;-74
2022/08/31 03:11:16;;;;;;;1.37;1.27;;;12.00;99.90;;;;;;4927031;29;20467;-74
2022/08/31 03:17:25;;;;;;;1.30;1.20;;;11.90;99.90;;;;;;4928397;29;20472;-74
2022/08/31 03:20:26;;;;;;;1.50;1.40;;;11.90;99.90;;;;;;4927098;29;20551;-74
2022/08/31 03:23:43;;;;;;;1.07;1.00;;;11.90;99.90;;;;;;4928736;29;20459;-74
2022/08/31 03:27:00;;;;;;;1.17;1.17;;;11.90;99.90;;;;;;4922474;29;20484;-73
2022/08/31 03:33:47;;;;;;;1.17;1.10;;;11.80;99.90;;;;;;4930774;28;20980;-74
2022/08/31 03:36:59;;;;;;;1.33;1.23;;;11.80;99.90;;;;;;4929008;29;20480;-74
2022/08/31 03:40:13;;;;;;;1.10;1.00;;;11.80;99.90;;;;;;4928909;29;20546;-74
2022/08/31 03:43:14;;;;;;;0.97;0.97;;;11.70;99.90;;;;;;4926374;29;20464;-73
2022/08/31 03:46:44;;;;;;;1.40;1.30;;;11.70;99.90;;;;;;4927807;29;20476;-73
2022/08/31 03:56:48;;;;;;;1.57;1.47;;;11.60;99.90;;;;;;4930485;29;20543;-74
2022/08/31 04:00:04;;;;;;;;;;;;;;;;;;;;;
2022/08/31 04:03:17;;;;;;;1.20;1.20;;;11.60;99.90;;;;;;4914206;29;20518;-74
2022/08/31 04:06:49;;;;;;;1.50;1.30;;;11.60;99.90;;;;;;4930577;29;20627;-74
2022/08/31 04:09:55;;;;;;;1.20;1.07;;;11.50;99.90;;;;;;4929818;29;20460;-73
2022/08/31 04:13:04;;;;;;;1.33;1.23;;;11.50;99.90;;;;;;4927036;29;20595;-73
2022/08/31 04:22:34;;;;;;;1.43;1.33;;;11.50;99.90;;;;;;4930388;29;20488;-74
2022/08/31 04:25:48;;;;;;;1.33;1.20;;;11.40;99.90;;;;;;4928834;29;20507;-74
2022/08/31 04:32:20;;;;;;;1.67;1.33;;;11.40;99.90;;;;;;4880488;29;21196;-74
2022/08/31 04:35:15;;;;;;;2.77;1.40;;;11.40;99.90;;;;;;4926405;29;20476;-74
2022/08/31 04:38:20;;;;;;;1.40;1.30;;;11.40;99.90;;;;;;4927454;29;20598;-74
2022/08/31 04:41:40;;;;;;;;;;;;;;;;;;;;;
2022/08/31 04:44:37;;;;;;;1.20;1.10;;;11.30;99.90;;;;;;4923555;29;20448;-74
2022/08/31 04:50:54;;;;;;;1.70;1.60;;;11.30;99.90;;;;;;4923579;29;20464;-74
2022/08/31 04:54:28;;;;;;;1.43;1.33;;;11.30;99.90;;;;;;4924351;29;20456;-74
2022/08/31 05:01:19;;;;;;;1.43;1.33;;;11.30;99.90;;;;;;4923252;29;20455;-71
2022/08/31 05:07:52;;;;;;;2.17;1.63;;;11.30;99.90;;;;;;4924083;29;21448;-73
2022/08/31 05:11:00;;;;;;;1.73;1.60;;;11.30;99.90;;;;;;4920663;29;20499;-74
2022/08/31 05:13:59;;;;;;;1.70;1.60;;;11.30;99.90;;;;;;4919486;29;20612;-74
2022/08/31 05:20:32;;;;;;;2.20;1.77;;;11.30;99.90;;;;;;4931729;29;20494;-75
2022/08/31 05:23:33;;;;;;;2.00;1.80;;;11.40;99.90;;;;;;4928581;29;21279;-73
2022/08/31 05:26:38;;;;;;;1.90;1.80;;;11.40;99.90;;;;;;4932468;29;21183;-74
2022/08/31 05:29:45;;;;;;;1.80;1.70;;;11.50;99.90;;;;;;4929025;29;20862;-74
2022/08/31 05:33:12;;;;;;;2.30;2.00;;;11.50;99.90;;;;;;4928887;29;20459;-74
2022/08/31 05:36:23;;;;;;;2.10;1.80;;;11.60;99.90;;;;;;4934472;29;20483;-74
2022/08/31 05:39:29;;;;;;;2.80;1.73;;;11.60;99.90;;;;;;4934269;29;20467;-74
2022/08/31 05:42:50;;;;;;;2.00;1.90;;;11.70;99.90;;;;;;4928197;29;20464;-74
2022/08/31 05:46:14;;;;;;;2.07;1.97;;;11.70;99.90;;;;;;4928096;29;20630;-73
2022/08/31 05:52:48;;;;;;;2.30;2.10;;;11.90;99.90;;;;;;4931845;28;20461;-74
2022/08/31 05:55:46;;;;;;;2.43;2.20;;;12.00;99.90;;;;;;4931708;29;20471;-74
2022/08/31 06:01:57;;;;;;;5.03;2.00;;;12.10;99.90;;;;;;4928456;29;20475;-74
2022/08/31 06:04:45;;;;;;;3.50;2.33;;;12.20;99.90;;;;;;4916137;29;20464;-74
2022/08/31 06:07:37;;;;;;;2.63;2.10;;;12.20;99.90;;;;;;4924543;29;20477;-74
2022/08/31 06:10:34;;;;;;;1.97;1.77;;;12.30;99.90;;;;;;4928187;29;20507;-74
2022/08/31 06:13:26;;;;;;;1.77;1.67;;;12.40;99.90;;;;;;4930886;29;20585;-74
2022/08/31 06:16:16;;;;;;;2.80;1.80;;;12.40;99.90;;;;;;4930801;29;20570;-74
2022/08/31 06:19:06;;;;;;;2.20;1.50;;;12.50;99.90;;;;;;4930801;29;20827;-74
2022/08/31 06:21:59;;;;;;;1.73;1.50;;;12.50;99.90;;;;;;4928291;29;20547;-74
2022/08/31 06:24:47;;;;;;;1.53;1.43;;;12.60;99.90;;;;;;4933283;29;21007;-74
2022/08/31 06:27:37;;;;;;;1.90;1.70;;;12.70;99.90;;;;;;4928648;29;20492;-74
2022/08/31 06:30:31;;;;;;;3.10;1.70;;;12.80;99.90;;;;;;4926916;29;21103;-74
2022/08/31 06:33:21;;;;;;;1.33;1.23;;;12.80;99.90;;;;;;4929261;29;20452;-74
2022/08/31 06:36:13;;;;;;;3.60;1.40;;;12.90;99.90;;;;;;4929629;29;20571;-74
2022/08/31 06:39:02;;;;;;;1.70;1.60;;;13.00;99.90;;;;;;4929913;29;21329;-74
2022/08/31 06:41:51;;;;;;;2.70;1.83;;;13.10;99.90;;;;;;4933372;28;20459;-74
2022/08/31 06:44:41;;;;;;;3.60;1.73;;;13.20;99.90;;;;;;4931949;28;20452;-74
2022/08/31 06:47:30;;;;;;;2.70;2.10;;;13.30;99.90;;;;;;4932571;29;20623;-75
2022/08/31 06:50:20;;;;;;;2.00;1.40;;;13.40;99.90;;;;;;4928145;29;21279;-74
2022/08/31 06:53:10;;;;;;;1.60;1.47;;;13.40;99.90;;;;;;4933460;29;20630;-74
2022/08/31 06:56:15;;;;;;;1.60;1.50;;;13.60;99.90;;;;;;4927436;29;20476;-74
2022/08/31 06:59:09;;;;;;;1.73;1.63;;;13.70;99.90;;;;;;4928806;29;20522;-74
2022/08/31 07:02:06;;;;;;;1.87;1.50;;;13.80;99.90;;;;;;4928654;29;20547;-74
2022/08/31 07:04:55;;;;;;;1.70;1.50;;;13.90;99.90;;;;;;4932295;29;21002;-74
2022/08/31 07:07:47;;;;;;;2.07;1.43;;;14.00;99.90;;;;;;4934208;28;20534;-74
2022/08/31 07:10:37;;;;;;;1.60;1.10;;;14.10;99.90;;;;;;4928593;29;20494;-74
2022/08/31 07:13:32;;;;;;;1.90;0.90;;;14.20;99.90;;;;;;4931031;29;20972;-74
2022/08/31 07:16:25;;;;;;;0.90;0.90;;;14.30;99.90;;;;;;4930535;29;20628;-74
2022/08/31 07:19:14;;;;;;;1.10;1.00;;;14.40;99.90;;;;;;4930287;29;20535;-74
2022/08/31 07:22:08;;;;;;;4.07;1.03;;;14.50;99.90;;;;;;4927741;29;20460;-74
2022/08/31 07:25:01;;;;;;;1.83;1.30;;;14.60;99.90;;;;;;4932580;28;20507;-74
2022/08/31 07:27:54;;;;;;;2.20;1.03;;;14.80;99.90;;;;;;4929605;28;20492;-74
2022/08/31 07:30:52;;;;;;;1.30;0.80;;;14.80;99.90;;;;;;4930988;29;20478;-74
2022/08/31 07:33:42;;;;;;;1.70;0.80;;;15.00;99.90;;;;;;4931931;29;20543;-74
2022/08/31 07:36:30;;;;;;;1.50;0.90;;;15.10;99.90;;;;;;4930281;29;20570;-74
2022/08/31 07:42:32;;;;;;;0.90;0.87;;;15.30;99.90;;;;;;4930218;29;20518;-74
2022/08/31 07:45:29;;;;;;;2.00;0.90;;;15.40;99.90;;;;;;4926915;29;20487;-74
2022/08/31 07:48:27;;;;;;;0.73;0.73;;;15.50;99.90;;;;;;4932066;28;20968;-74
2022/08/31 07:51:22;;;;;;;0.90;0.90;;;15.60;99.90;;;;;;4933185;28;20586;-74
2022/08/31 07:54:10;;;;;;;0.90;0.90;;;15.80;99.90;;;;;;4928054;29;20547;-74
2022/08/31 07:57:04;;;;;;;1.27;0.80;;;15.80;99.90;;;;;;4926336;29;20514;-74
2022/08/31 08:00:07;;;;;;;1.10;0.80;;;16.00;99.90;;;;;;4928568;29;20460;-74
2022/08/31 08:03:00;;;;;;;0.70;0.70;;;16.10;99.90;;;;;;4932515;29;21094;-74
2022/08/31 08:05:50;;;;;;;1.23;0.77;;;16.30;99.90;;;;;;4930960;28;20495;-75
2022/08/31 08:08:41;;;;;;;0.90;0.70;;;16.40;99.90;;;;;;4929008;29;20495;-74
2022/08/31 08:11:32;;;;;;;1.00;0.70;;;16.50;99.90;;;;;;4930693;29;20476;-74
2022/08/31 08:14:26;;;;;;;0.87;0.80;;;16.60;99.90;;;;;;4931450;28;20575;-74
2022/08/31 08:17:24;;;;;;;0.77;0.77;;;16.70;99.90;;;;;;4927671;29;20476;-74
2022/08/31 08:20:22;;;;;;;1.43;0.93;;;16.70;99.90;;;;;;4931004;28;20837;-74
2022/08/31 08:23:30;;;;;;;1.20;0.80;;;16.80;99.90;;;;;;4928302;29;20812;-74
2022/08/31 08:26:19;;;;;;;1.10;0.90;;;16.90;99.90;;;;;;4929827;29;20479;-74
2022/08/31 08:29:09;;;;;;;1.13;0.90;;;17.00;99.90;;;;;;4928361;29;20468;-74
2022/08/31 08:31:58;;;;;;;1.43;1.00;;;17.10;99.90;;;;;;4930003;29;20494;-74
2022/08/31 08:34:47;;;;;;;2.50;1.00;;;17.20;99.90;;;;;;4930353;29;20463;-74
2022/08/31 08:37:38;;;;;;;0.83;0.70;;;17.30;99.90;;;;;;4928320;29;20471;-74
2022/08/31 08:40:49;;;;;;;0.80;0.80;;;17.40;99.90;;;;;;4930108;28;20463;-75
2022/08/31 08:43:52;;;;;;;1.60;0.87;;;17.50;99.90;;;;;;4926887;29;20464;-74
2022/08/31 08:46:52;;;;;;;1.50;0.90;;;17.60;99.90;;;;;;4926920;29;20479;-74
2022/08/31 08:49:50;;;;;;;0.50;0.50;;;17.80;99.90;;;;;;4927377;29;20479;-74
2022/08/31 08:52:48;;;;;;;0.70;0.70;;;17.90;99.90;;;;;;4930234;29;20467;-74
2022/08/31 08:55:42;;;;;;;0.90;0.90;;;18.00;99.90;;;;;;4930336;29;20475;-74
2022/08/31 08:58:34;;;;;;;0.67;0.67;;;18.00;99.90;;;;;;4929110;29;20495;-75
2022/08/31 09:01:27;;;;;;;1.93;0.90;;;18.10;99.90;;;;;;4926913;29;20563;-74
2022/08/31 09:04:29;;;;;;;2.90;0.90;;;18.20;99.90;;;;;;4927733;29;21193;-74
2022/08/31 09:07:41;;;;;;;1.23;0.80;;;18.30;99.90;;;;;;4926496;29;20615;-74
2022/08/31 09:10:34;;;;;;;0.80;0.80;;;18.40;99.90;;;;;;4925988;29;20578;-74
2022/08/31 09:13:32;;;;;;;1.23;0.80;;;18.60;99.90;;;;;;4931334;29;20509;-75
2022/08/31 09:16:27;;;;;;;1.43;0.60;;;18.70;99.90;;;;;;4929451;29;21618;-74
2022/08/31 09:19:19;;;;;;;0.63;0.60;;;18.80;99.90;;;;;;4926886;29;20967;-74
2022/08/31 09:22:07;;;;;;;0.73;0.63;;;18.90;99.90;;;;;;4929689;29;20515;-75
2022/08/31 09:25:01;;;;;;;0.73;0.73;;;19.00;99.90;;;;;;4927933;29;20472;-74
2022/08/31 09:27:59;;;;;;;1.27;0.90;;;19.00;99.90;;;;;;4927139;28;20518;-74
2022/08/31 09:30:53;;;;;;;2.10;0.80;;;19.10;99.90;;;;;;4922945;29;21000;-75
2022/08/31 09:33:49;;;;;;;1.53;0.80;;;19.10;99.90;;;;;;4924705;29;20463;-75
2022/08/31 09:36:40;;;;;;;0.70;0.70;;;19.20;99.90;;;;;;4928135;29;20575;-74
2022/08/31 09:39:35;;;;;;;1.20;0.60;;;19.30;99.90;;;;;;4923878;29;21170;-75
2022/08/31 09:42:32;;;;;;;0.93;0.87;;;19.30;99.90;;;;;;4927333;29;20456;-75
2022/08/31 09:45:35;;;;;;;2.10;0.80;;;19.40;99.90;;;;;;4929937;28;20992;-75
2022/08/31 09:48:50;;;;;;;0.60;0.60;;;19.40;99.90;;;;;;4926800;29;20467;-75
2022/08/31 09:51:39;;;;;;;0.60;0.60;;;19.50;99.90;;;;;;4926566;29;20487;-75
2022/08/31 09:57:54;;;;;;;1.10;0.90;;;19.60;99.90;;;;;;4927643;29;20476;-75
2022/08/31 10:00:49;;;;;;;1.10;0.80;;;19.80;99.90;;;;;;4928389;29;20467;-74
2022/08/31 10:03:37;;;;;;;0.80;0.80;;;19.80;99.90;;;;;;4930592;29;20519;-74
2022/08/31 10:06:45;;;;;;;0.90;0.70;;;19.90;99.90;;;;;;4930602;29;20553;-75
2022/08/31 10:09:38;;;;;;;1.33;0.83;;;20.10;99.90;;;;;;4928081;29;20459;-75
2022/08/31 10:12:37;;;;;;;0.90;0.60;;;20.20;99.90;;;;;;4927146;28;20863;-74
2022/08/31 10:15:34;;;;;;;1.40;0.70;;;20.20;99.90;;;;;;4930375;29;20466;-75
2022/08/31 10:18:29;;;;;;;0.83;0.70;;;20.30;99.90;;;;;;4928731;29;20455;-75
2022/08/31 10:21:28;;;;;;;0.77;0.77;;;20.40;99.90;;;;;;4932176;29;20554;-75
2022/08/31 10:24:28;;;;;;;0.70;0.70;;;20.50;99.90;;;;;;4929398;29;20966;-75
2022/08/31 10:27:20;;;;;;;1.30;0.80;;;20.50;99.90;;;;;;4932754;29;20590;-75
2022/08/31 10:30:26;;;;;;;1.00;0.90;;;20.60;99.90;;;;;;4928921;29;21273;-75
2022/08/31 10:33:20;;;;;;;1.27;0.70;;;20.70;99.90;;;;;;4929784;29;20447;-75
2022/08/31 10:36:10;;;;;;;0.80;0.80;;;20.80;99.90;;;;;;4929310;29;20475;-74
2022/08/31 10:39:10;;;;;;;2.40;0.70;;;20.90;99.90;;;;;;4928105;29;20547;-74
2022/08/31 10:42:04;;;;;;;1.10;0.70;;;20.90;99.90;;;;;;4925599;29;20464;-76
2022/08/31 10:44:59;;;;;;;1.27;0.70;;;21.00;99.90;;;;;;4930894;29;20456;-75
2022/08/31 10:47:54;;;;;;;2.60;1.10;;;21.10;99.90;;;;;;4930311;29;20511;-74
2022/08/31 10:50:51;;;;;;;1.53;0.70;;;21.20;99.90;;;;;;4931355;29;20479;-74
2022/08/31 10:53:50;;;;;;;1.60;1.03;;;21.40;99.90;;;;;;4928270;29;20534;-76
2022/08/31 10:56:55;;;;;;;1.43;0.90;;;21.40;99.90;;;;;;4932437;29;20570;-74
2022/08/31 10:59:54;;;;;;;0.70;0.63;;;21.40;99.90;;;;;;4928537;29;20491;-74
2022/08/31 11:02:59;;;;;;;1.10;1.00;;;21.30;99.90;;;;;;4928539;29;20456;-74
2022/08/31 11:05:58;;;;;;;1.20;1.10;;;21.40;99.90;;;;;;4932945;29;20483;-74
2022/08/31 11:08:56;;;;;;;0.63;0.63;;;21.40;99.90;;;;;;4924701;29;20462;-74
2022/08/31 11:12:03;;;;;;;0.90;0.70;;;21.50;99.90;;;;;;4932558;29;20533;-74
2022/08/31 11:15:16;;;;;;;0.70;0.70;;;21.60;99.90;;;;;;4929794;29;20638;-74
2022/08/31 11:18:39;;;;;;;0.80;0.70;;;21.70;99.90;;;;;;4930837;29;20562;-74
2022/08/31 11:21:53;;;;;;;1.20;0.90;;;21.80;99.90;;;;;;4920427;29;20448;-75
2022/08/31 11:25:13;;;;;;;0.77;0.77;;;22.00;99.90;;;;;;4926952;29;20460;-74
2022/08/31 11:28:10;;;;;;;1.40;0.80;;;22.10;99.90;;;;;;4929441;29;20459;-74
2022/08/31 11:31:05;;;;;;;0.90;0.60;;;22.20;99.90;;;;;;4931400;29;20467;-74
2022/08/31 11:34:01;;;;;;;0.57;0.57;;;22.30;99.90;;;;;;4925850;29;20463;-74
2022/08/31 11:37:09;;;;;;;2.13;0.80;;;22.40;99.90;;;;;;4927777;29;21375;-74
2022/08/31 11:39:57;;;;;;;0.90;0.90;;;22.60;99.90;;;;;;4926146;29;20455;-74
2022/08/31 11:42:56;;;;;;;0.80;0.80;;;22.70;99.90;;;;;;4923109;29;20580;-74
2022/08/31 11:45:46;;;;;;;1.23;0.93;;;22.80;99.90;;;;;;4929978;29;20491;-74
2022/08/31 11:48:58;;;;;;;1.03;0.90;;;22.80;99.90;;;;;;4925212;29;20546;-74
2022/08/31 11:51:54;;;;;;;0.90;0.80;;;22.90;99.90;;;;;;4919567;29;20607;-74
2022/08/31 11:55:08;;;;;;;0.90;0.90;;;23.00;99.90;;;;;;4926499;29;20472;-74
2022/08/31 11:58:17;;;;;;;1.00;0.90;;;23.10;99.90;;;;;;4926965;29;21138;-73
2022/08/31 12:01:34;;;;;;;0.90;0.60;;;23.10;99.90;;;;;;4919915;29;21107;-74
2022/08/31 12:04:59;;;;;;;0.90;0.70;;;23.10;99.90;;;;;;4921665;29;21489;-74
2022/08/31 12:07:51;;;;;;;0.60;0.60;;;23.10;99.90;;;;;;4922819;29;20456;-74
2022/08/31 12:10:52;;;;;;;1.03;0.70;;;23.00;99.90;;;;;;4923586;29;20474;-74
2022/08/31 12:13:50;;;;;;;1.60;1.00;;;23.00;99.90;;;;;;4919321;29;21401;-74
2022/08/31 12:16:56;;;;;;;1.43;1.00;;;23.00;99.90;;;;;;4929614;28;20880;-74
2022/08/31 12:20:03;;;;;;;1.40;0.87;;;22.90;99.90;;;;;;4924812;29;20464;-73
2022/08/31 12:26:44;;;;;;;0.70;0.70;;;22.90;99.90;;;;;;4930196;29;20634;-73
2022/08/31 12:29:44;;;;;;;1.23;0.80;;;22.80;99.90;;;;;;4925492;29;20522;-74
2022/08/31 12:32:37;;;;;;;0.70;0.70;;;22.90;99.90;;;;;;4926157;29;20483;-74
2022/08/31 12:35:29;;;;;;;0.70;0.70;;;23.10;99.90;;;;;;4919566;29;20559;-74
2022/08/31 12:38:30;;;;;;;;;;;;;;;;;;;;;
2022/08/31 12:41:20;;;;;;;1.40;1.00;;;23.30;99.90;;;;;;4930419;28;20515;-72
2022/08/31 12:44:20;;;;;;;0.90;0.90;;;23.30;99.90;;;;;;4928438;28;20471;-72
2022/08/31 12:47:21;;;;;;;2.53;0.80;;;23.30;99.90;;;;;;4925864;29;20501;-72
2022/08/31 12:50:19;;;;;;;0.80;0.80;;;23.30;99.90;;;;;;4925800;29;20482;-72
2022/08/31 12:54:02;;;;;;;1.00;0.90;;;23.20;99.90;;;;;;4926497;29;20905;-76
2022/08/31 12:56:58;;;;;;;3.23;0.90;;;23.10;99.90;;;;;;4922798;29;20964;-74
2022/08/31 13:00:01;;;;;;;1.47;0.80;;;23.00;99.90;;;;;;4928734;29;23073;-73
2022/08/31 13:02:53;;;;;;;1.63;0.83;;;23.00;99.90;;;;;;4924202;29;20463;-74
2022/08/31 13:05:59;;;;;;;0.97;0.87;;;23.10;99.90;;;;;;4924766;29;20476;-74
2022/08/31 13:08:53;;;;;;;1.13;1.03;;;23.40;99.90;;;;;;4925000;29;20517;-74
2022/08/31 13:11:42;;;;;;;0.80;0.80;;;23.70;99.90;;;;;;4921793;29;20486;-74
2022/08/31 13:14:41;;;;;;;2.27;0.80;;;24.10;99.90;;;;;;4927820;29;20495;-74
2022/08/31 13:17:37;;;;;;;0.80;0.73;;;24.40;99.90;;;;;;4922760;29;20847;-74
2022/08/31 13:20:43;;;;;;;1.07;1.00;;;24.90;99.90;;;;;;4924454;29;20846;-74
2022/08/31 13:23:37;;;;;;;1.13;0.90;;;25.30;99.90;;;;;;4922976;29;20485;-74
2022/08/31 13:26:35;;;;;;;1.77;0.70;;;25.60;99.90;;;;;;4928358;29;20506;-73
2022/08/31 13:29:25;;;;;;;1.83;0.70;;;25.80;99.90;;;;;;4926994;29;20492;-74
2022/08/31 13:32:31;;;;;;;0.97;0.67;;;25.90;99.90;;;;;;4926933;28;20471;-73
2022/08/31 13:35:24;;;;;;;0.80;0.80;;;26.20;99.90;;;;;;4931003;28;20467;-73
2022/08/31 13:38:13;;;;;;;1.30;1.03;;;26.40;99.90;;;;;;4930059;29;20550;-74
2022/08/31 13:41:01;;;;;;;2.47;1.00;;;26.80;99.90;;;;;;4930931;29;20464;-74
2022/08/31 13:43:57;;;;;;;2.27;0.90;;;27.00;99.90;;;;;;4929076;29;20491;-76
2022/08/31 13:46:58;;;;;;;2.27;1.10;;;27.40;99.90;;;;;;4926618;29;21008;-76
2022/08/31 13:49:57;;;;;;;0.90;0.80;;;27.70;99.90;;;;;;4931375;29;20504;-76
2022/08/31 13:52:54;;;;;;;0.80;0.70;;;27.60;99.90;;;;;;4932456;29;20571;-76
2022/08/31 13:59:35;;;;;;;0.90;0.70;;;27.00;99.90;;;;;;4926409;29;20972;-74
2022/08/31 14:02:32;;;;;;;1.00;0.90;;;26.90;99.90;;;;;;4924901;29;20479;-74
2022/08/31 14:05:35;;;;;;;1.93;0.80;;;27.00;99.90;;;;;;4930363;29;20467;-74
2022/08/31 14:08:29;;;;;;;1.10;0.60;;;27.00;98.50;;;;;;4925992;29;20479;-74
2022/08/31 14:11:27;;;;;;;1.00;0.73;;;26.80;99.50;;;;;;4930602;29;20460;-73
2022/08/31 14:14:16;;;;;;;1.27;0.77;;;26.80;99.60;;;;;;4929300;29;22207;-75
2022/08/31 14:17:14;;;;;;;0.80;0.80;;;26.40;98.50;;;;;;4925569;29;20483;-77
2022/08/31 14:20:35;;;;;;;0.60;0.60;;;26.10;99.40;;;;;;4928213;29;20472;-77
2022/08/31 14:23:36;;;;;;;0.70;0.70;;;26.00;99.70;;;;;;4868628;29;20481;-77
2022/08/31 14:26:27;;;;;;;1.10;0.90;;;25.80;99.90;;;;;;4868362;29;20519;-77
2022/08/31 14:29:18;;;;;;;1.20;1.10;;;25.80;99.90;;;;;;4864612;29;21154;-77
2022/08/31 14:32:07;;;;;;;1.10;0.80;;;25.50;99.90;;;;;;4865671;29;20455;-76
2022/08/31 14:34:56;;;;;;;0.80;0.67;;;25.40;99.90;;;;;;4868627;29;20553;-77
2022/08/31 14:37:47;;;;;;;2.40;0.80;;;25.20;99.90;;;;;;4868185;29;20458;-77
2022/08/31 14:40:39;;;;;;;1.80;0.90;;;25.20;99.90;;;;;;4869960;29;20456;-77
2022/08/31 14:43:30;;;;;;;2.80;0.90;;;25.00;99.90;;;;;;4867997;29;21050;-77
2022/08/31 14:46:26;;;;;;;1.80;1.00;;;24.90;99.90;;;;;;4867933;29;21071;-76
2022/08/31 14:49:15;;;;;;;1.03;0.87;;;24.80;99.90;;;;;;4866375;29;20553;-77
2022/08/31 14:52:06;;;;;;;1.43;1.33;;;24.60;99.90;;;;;;4869679;29;20458;-77
2022/08/31 14:55:01;;;;;;;1.70;1.00;;;24.60;99.90;;;;;;4868822;29;20563;-77
2022/08/31 14:57:57;;;;;;;1.37;0.90;;;24.50;99.90;;;;;;4911187;29;20469;-76
2022/08/31 15:00:47;;;;;;;1.77;0.70;;;24.40;99.90;;;;;;4932820;28;20460;-77
2022/08/31 15:03:42;;;;;;;1.27;0.87;;;24.30;99.90;;;;;;4931193;29;20458;-77
2022/08/31 15:06:31;;;;;;;1.90;0.90;;;24.20;99.90;;;;;;4931834;29;20571;-77
2022/08/31 15:09:25;;;;;;;0.80;0.80;;;24.10;99.90;;;;;;4931540;28;20551;-76
2022/08/31 15:12:15;;;;;;;2.13;0.80;;;24.00;99.90;;;;;;4927523;28;20547;-76
2022/08/31 15:15:09;;;;;;;2.00;0.80;;;24.00;99.90;;;;;;4931165;28;20499;-77
2022/08/31 15:18:01;;;;;;;0.93;0.83;;;23.80;99.90;;;;;;4930316;29;20539;-76
2022/08/31 15:20:50;;;;;;;3.10;0.90;;;23.80;99.90;;;;;;4930555;29;20468;-77
2022/08/31 15:23:40;;;;;;;0.87;0.77;;;23.80;99.90;;;;;;4932687;29;20468;-77
2022/08/31 15:26:28;;;;;;;1.07;0.80;;;23.80;99.90;;;;;;4924503;29;20499;-77
2022/08/31 15:29:18;;;;;;;2.37;1.00;;;23.70;99.90;;;;;;4927612;29;20628;-77
2022/08/31 15:32:15;;;;;;;1.83;0.80;;;23.70;99.90;;;;;;4932661;29;21006;-76
2022/08/31 15:35:06;;;;;;;1.10;1.00;;;23.60;99.90;;;;;;4932017;29;20500;-76
2022/08/31 15:38:00;;;;;;;0.80;0.70;;;23.50;99.90;;;;;;4929806;29;21146;-77
2022/08/31 15:40:48;;;;;;;0.80;0.80;;;23.50;99.90;;;;;;4929941;29;20588;-77
2022/08/31 15:43:43;;;;;;;1.33;0.93;;;23.40;99.90;;;;;;4930277;29;20460;-77
2022/08/31 15:49:56;;;;;;;0.80;0.77;;;23.40;99.90;;;;;;4909878;29;20511;-76
2022/08/31 15:52:54;;;;;;;1.00;0.70;;;23.40;99.90;;;;;;4930406;29;20835;-76
2022/08/31 15:55:53;;;;;;;1.73;0.93;;;23.50;99.90;;;;;;4928694;29;20572;-76
2022/08/31 15:58:52;;;;;;;1.03;0.80;;;23.50;99.90;;;;;;4930002;29;20460;-76
2022/08/31 16:01:41;;;;;;;0.70;0.70;;;23.50;99.90;;;;;;4931147;29;20539;-76
2022/08/31 16:04:30;;;;;;;1.20;0.87;;;23.40;99.90;;;;;;4925171;29;20460;-76
2022/08/31 16:07:25;;;;;;;1.07;0.93;;;23.40;99.90;;;;;;4933273;28;20479;-77
2022/08/31 16:10:14;;;;;;;0.67;0.67;;;23.50;99.90;;;;;;4929643;29;20464;-76
2022/08/31 16:13:08;;;;;;;2.83;0.90;;;23.50;99.90;;;;;;4930019;29;20543;-77
2022/08/31 16:15:58;;;;;;;2.37;0.90;;;23.50;99.90;;;;;;4929028;29;20492;-76
2022/08/31 16:18:51;;;;;;;1.60;0.97;;;23.40;99.90;;;;;;4933233;29;20456;-76
2022/08/31 16:21:44;;;;;;;3.57;1.10;;;23.40;99.90;;;;;;4933205;28;20567;-77
2022/08/31 16:24:37;;;;;;;0.80;0.80;;;23.40;99.90;;;;;;4931662;28;20848;-77
2022/08/31 16:27:26;;;;;;;1.17;0.83;;;23.30;99.90;;;;;;4933103;29;20502;-77
2022/08/31 16:30:17;;;;;;;2.03;0.80;;;23.20;99.90;;;;;;4926970;29;20464;-76
2022/08/31 16:33:08;;;;;;;2.63;1.03;;;23.20;99.90;;;;;;4931233;29;20487;-76
2022/08/31 16:35:57;;;;;;;1.63;0.90;;;23.10;99.90;;;;;;4932693;29;20566;-77
2022/08/31 16:38:49;;;;;;;1.70;1.00;;;23.10;99.90;;;;;;4930417;29;20504;-76
2022/08/31 16:41:41;;;;;;;0.97;0.97;;;22.90;99.90;;;;;;4933182;28;20539;-76
2022/08/31 16:44:31;;;;;;;1.93;0.80;;;22.90;99.90;;;;;;4931604;29;20587;-76
2022/08/31 16:47:24;;;;;;;0.90;0.60;;;22.90;99.90;;;;;;4932180;29;21259;-78
2022/08/31 16:50:11;;;;;;;0.63;0.60;;;22.90;99.90;;;;;;4930138;29;20460;-77
2022/08/31 16:53:15;;;;;;;0.90;0.90;;;22.90;99.90;;;;;;4932580;29;20456;-77
2022/08/31 16:56:06;;;;;;;1.17;0.70;;;22.90;99.90;;;;;;4929317;29;20496;-77
2022/08/31 16:58:58;;;;;;;0.97;0.80;;;22.90;99.90;;;;;;4929720;28;21104;-77
2022/08/31 17:01:46;;;;;;;1.17;0.70;;;22.80;99.90;;;;;;4930479;29;20550;-76
2022/08/31 17:04:39;;;;;;;1.13;0.93;;;22.80;99.90;;;;;;4923227;29;20459;-77
2022/08/31 17:07:43;;;;;;;1.00;0.90;;;22.70;99.90;;;;;;4927785;29;20463;-77
2022/08/31 17:10:33;;;;;;;0.80;0.80;;;22.70;99.90;;;;;;4930370;28;20508;-77
2022/08/31 17:13:27;;;;;;;0.80;0.77;;;22.60;99.90;;;;;;4927145;29;20469;-75
2022/08/31 17:16:20;;;;;;;0.70;0.70;;;22.60;99.90;;;;;;4928394;29;21157;-77
2022/08/31 17:19:13;;;;;;;0.60;0.60;;;22.50;99.90;;;;;;4929142;28;20993;-77
2022/08/31 17:22:07;;;;;;;0.77;0.77;;;22.40;99.90;;;;;;4925777;29;20455;-76